sensor_id;sensor_type;location;lat;lon;timestamp;P1;durP1;ratioP1;P2;durP2;ratioP2
71176;SDS011;58877;51.992;4.504;2024-03-17T00:01:02;4.86;;;4.85;;
71176;SDS011;58877;51.992;4.504;2024-03-17T00:03:28;5.11;;;5.11;;
71176;SDS011;58877;51.992;4.504;2024-03-17T00:05:56;4.87;;;4.87;;
71176;SDS011;58877;51.992;4.504;2024-03-17T00:08:25;4.36;;;4.36;;
71176;SDS011;58877;51.992;4.504;2024-03-17T00:10:54;4.34;;;4.34;;
71176;SDS011;58877;51.992;4.504;2024-03-17T00:13:21;4.87;;;4.86;;
71176;SDS011;58877;51.992;4.504;2024-03-17T00:15:50;4.16;;;4.16;;
71176;SDS011;58877;51.992;4.504;2024-03-17T00:18:18;4.73;;;4.73;;
71176;SDS011;58877;51.992;4.504;2024-03-17T00:20:44;4.75;;;4.75;;
71176;SDS011;58877;51.992;4.504;2024-03-17T00:23:10;4.69;;;4.68;;
71176;SDS011;58877;51.992;4.504;2024-03-17T00:25:37;4.70;;;4.68;;
71176;SDS011;58877;51.992;4.504;2024-03-17T00:28:03;4.83;;;4.81;;
71176;SDS011;58877;51.992;4.504;2024-03-17T00:30:29;4.24;;;4.23;;
71176;SDS011;58877;51.992;4.504;2024-03-17T00:32:56;4.46;;;4.46;;
71176;SDS011;58877;51.992;4.504;2024-03-17T00:35:23;4.33;;;4.31;;
71176;SDS011;58877;51.992;4.504;2024-03-17T00:37:50;4.65;;;4.64;;
71176;SDS011;58877;51.992;4.504;2024-03-17T00:40:16;4.90;;;4.90;;
71176;SDS011;58877;51.992;4.504;2024-03-17T00:42:42;4.33;;;4.33;;
71176;SDS011;58877;51.992;4.504;2024-03-17T00:45:12;4.55;;;4.53;;
71176;SDS011;58877;51.992;4.504;2024-03-17T00:47:38;4.45;;;4.43;;
71176;SDS011;58877;51.992;4.504;2024-03-17T00:50:04;4.58;;;4.56;;
71176;SDS011;58877;51.992;4.504;2024-03-17T00:52:32;4.16;;;4.13;;
71176;SDS011;58877;51.992;4.504;2024-03-17T00:54:58;4.23;;;4.23;;
71176;SDS011;58877;51.992;4.504;2024-03-17T00:57:24;4.41;;;4.40;;
71176;SDS011;58877;51.992;4.504;2024-03-17T00:59:50;4.42;;;4.40;;
71176;SDS011;58877;51.992;4.504;2024-03-17T01:02:17;4.28;;;4.28;;
71176;SDS011;58877;51.992;4.504;2024-03-17T01:04:43;4.43;;;4.43;;
71176;SDS011;58877;51.992;4.504;2024-03-17T01:07:10;4.55;;;4.54;;
71176;SDS011;58877;51.992;4.504;2024-03-17T01:09:36;4.94;;;4.93;;
71176;SDS011;58877;51.992;4.504;2024-03-17T01:12:02;4.61;;;4.60;;
71176;SDS011;58877;51.992;4.504;2024-03-17T01:14:28;4.82;;;4.82;;
71176;SDS011;58877;51.992;4.504;2024-03-17T01:16:55;4.85;;;4.83;;
71176;SDS011;58877;51.992;4.504;2024-03-17T01:19:21;5.25;;;5.24;;
71176;SDS011;58877;51.992;4.504;2024-03-17T01:21:47;4.47;;;4.47;;
71176;SDS011;58877;51.992;4.504;2024-03-17T01:24:12;4.71;;;4.70;;
71176;SDS011;58877;51.992;4.504;2024-03-17T01:26:38;5.35;;;5.33;;
71176;SDS011;58877;51.992;4.504;2024-03-17T01:29:04;5.33;;;5.32;;
71176;SDS011;58877;51.992;4.504;2024-03-17T01:31:30;4.98;;;4.98;;
71176;SDS011;58877;51.992;4.504;2024-03-17T01:33:56;5.46;;;5.45;;
71176;SDS011;58877;51.992;4.504;2024-03-17T01:36:21;5.19;;;5.17;;
71176;SDS011;58877;51.992;4.504;2024-03-17T01:38:47;5.16;;;5.16;;
71176;SDS011;58877;51.992;4.504;2024-03-17T01:41:12;5.46;;;5.46;;
71176;SDS011;58877;51.992;4.504;2024-03-17T01:43:39;5.18;;;5.18;;
71176;SDS011;58877;51.992;4.504;2024-03-17T01:46:05;5.07;;;5.07;;
71176;SDS011;58877;51.992;4.504;2024-03-17T01:48:35;4.84;;;4.84;;
71176;SDS011;58877;51.992;4.504;2024-03-17T01:51:01;5.46;;;5.44;;
71176;SDS011;58877;51.992;4.504;2024-03-17T01:53:28;5.73;;;5.73;;
71176;SDS011;58877;51.992;4.504;2024-03-17T01:55:55;5.27;;;5.26;;
71176;SDS011;58877;51.992;4.504;2024-03-17T01:58:27;5.55;;;5.53;;
71176;SDS011;58877;51.992;4.504;2024-03-17T02:00:55;5.51;;;5.47;;
71176;SDS011;58877;51.992;4.504;2024-03-17T02:03:21;5.11;;;5.08;;
71176;SDS011;58877;51.992;4.504;2024-03-17T02:05:47;5.61;;;5.61;;
71176;SDS011;58877;51.992;4.504;2024-03-17T02:08:13;5.46;;;5.44;;
71176;SDS011;58877;51.992;4.504;2024-03-17T02:10:45;5.34;;;5.33;;
71176;SDS011;58877;51.992;4.504;2024-03-17T02:13:13;5.17;;;5.17;;
71176;SDS011;58877;51.992;4.504;2024-03-17T02:15:40;5.65;;;5.65;;
71176;SDS011;58877;51.992;4.504;2024-03-17T02:18:05;5.29;;;5.29;;
71176;SDS011;58877;51.992;4.504;2024-03-17T02:20:31;5.70;;;5.70;;
71176;SDS011;58877;51.992;4.504;2024-03-17T02:23:15;5.61;;;5.61;;
71176;SDS011;58877;51.992;4.504;2024-03-17T02:25:41;5.72;;;5.72;;
71176;SDS011;58877;51.992;4.504;2024-03-17T02:28:07;5.24;;;5.24;;
71176;SDS011;58877;51.992;4.504;2024-03-17T02:30:33;5.68;;;5.68;;
71176;SDS011;58877;51.992;4.504;2024-03-17T02:32:59;5.66;;;5.66;;
71176;SDS011;58877;51.992;4.504;2024-03-17T02:35:24;5.78;;;5.78;;
71176;SDS011;58877;51.992;4.504;2024-03-17T02:37:51;5.50;;;5.50;;
71176;SDS011;58877;51.992;4.504;2024-03-17T02:40:17;5.44;;;5.44;;
71176;SDS011;58877;51.992;4.504;2024-03-17T02:42:44;5.67;;;5.65;;
71176;SDS011;58877;51.992;4.504;2024-03-17T02:45:10;5.80;;;5.74;;
71176;SDS011;58877;51.992;4.504;2024-03-17T02:47:40;5.75;;;5.75;;
71176;SDS011;58877;51.992;4.504;2024-03-17T02:50:09;6.07;;;6.07;;
71176;SDS011;58877;51.992;4.504;2024-03-17T02:52:35;5.83;;;5.83;;
71176;SDS011;58877;51.992;4.504;2024-03-17T02:55:01;6.19;;;6.18;;
71176;SDS011;58877;51.992;4.504;2024-03-17T02:57:26;5.65;;;5.65;;
71176;SDS011;58877;51.992;4.504;2024-03-17T02:59:57;6.18;;;6.18;;
71176;SDS011;58877;51.992;4.504;2024-03-17T03:02:23;6.10;;;6.08;;
71176;SDS011;58877;51.992;4.504;2024-03-17T03:04:49;5.85;;;5.83;;
71176;SDS011;58877;51.992;4.504;2024-03-17T03:07:15;6.23;;;6.21;;
71176;SDS011;58877;51.992;4.504;2024-03-17T03:09:41;5.94;;;5.92;;
71176;SDS011;58877;51.992;4.504;2024-03-17T03:12:07;5.77;;;5.74;;
71176;SDS011;58877;51.992;4.504;2024-03-17T03:14:33;5.91;;;5.91;;
71176;SDS011;58877;51.992;4.504;2024-03-17T03:17:02;5.76;;;5.75;;
71176;SDS011;58877;51.992;4.504;2024-03-17T03:19:28;5.99;;;5.99;;
71176;SDS011;58877;51.992;4.504;2024-03-17T03:21:55;5.54;;;5.53;;
71176;SDS011;58877;51.992;4.504;2024-03-17T03:24:21;5.86;;;5.84;;
71176;SDS011;58877;51.992;4.504;2024-03-17T03:26:47;5.99;;;5.99;;
71176;SDS011;58877;51.992;4.504;2024-03-17T03:29:13;6.05;;;6.05;;
71176;SDS011;58877;51.992;4.504;2024-03-17T03:31:42;6.02;;;6.02;;
71176;SDS011;58877;51.992;4.504;2024-03-17T03:34:08;5.72;;;5.72;;
71176;SDS011;58877;51.992;4.504;2024-03-17T03:36:34;5.44;;;5.44;;
71176;SDS011;58877;51.992;4.504;2024-03-17T03:39:01;5.62;;;5.61;;
71176;SDS011;58877;51.992;4.504;2024-03-17T03:41:29;5.88;;;5.87;;
71176;SDS011;58877;51.992;4.504;2024-03-17T03:43:56;5.79;;;5.79;;
71176;SDS011;58877;51.992;4.504;2024-03-17T03:46:21;5.44;;;5.44;;
71176;SDS011;58877;51.992;4.504;2024-03-17T03:48:47;5.66;;;5.65;;
71176;SDS011;58877;51.992;4.504;2024-03-17T03:51:12;5.89;;;5.83;;
71176;SDS011;58877;51.992;4.504;2024-03-17T03:53:39;6.16;;;6.15;;
71176;SDS011;58877;51.992;4.504;2024-03-17T03:56:05;5.97;;;5.96;;
71176;SDS011;58877;51.992;4.504;2024-03-17T03:58:32;6.51;;;6.50;;
71176;SDS011;58877;51.992;4.504;2024-03-17T04:01:05;6.50;;;6.49;;
71176;SDS011;58877;51.992;4.504;2024-03-17T04:03:35;6.41;;;6.41;;
71176;SDS011;58877;51.992;4.504;2024-03-17T04:06:05;6.41;;;6.41;;
71176;SDS011;58877;51.992;4.504;2024-03-17T04:08:33;6.56;;;6.55;;
71176;SDS011;58877;51.992;4.504;2024-03-17T04:11:04;6.35;;;6.35;;
71176;SDS011;58877;51.992;4.504;2024-03-17T04:13:33;6.22;;;6.22;;
71176;SDS011;58877;51.992;4.504;2024-03-17T04:15:59;6.20;;;6.20;;
71176;SDS011;58877;51.992;4.504;2024-03-17T04:18:26;6.84;;;6.82;;
71176;SDS011;58877;51.992;4.504;2024-03-17T04:20:55;6.73;;;6.71;;
71176;SDS011;58877;51.992;4.504;2024-03-17T04:23:22;6.96;;;6.93;;
71176;SDS011;58877;51.992;4.504;2024-03-17T04:25:49;7.34;;;7.31;;
71176;SDS011;58877;51.992;4.504;2024-03-17T04:28:17;6.22;;;6.22;;
71176;SDS011;58877;51.992;4.504;2024-03-17T04:30:44;6.71;;;6.71;;
71176;SDS011;58877;51.992;4.504;2024-03-17T04:33:13;6.84;;;6.84;;
71176;SDS011;58877;51.992;4.504;2024-03-17T04:35:42;6.94;;;6.91;;
71176;SDS011;58877;51.992;4.504;2024-03-17T04:38:08;7.02;;;7.01;;
71176;SDS011;58877;51.992;4.504;2024-03-17T04:40:34;7.27;;;7.26;;
71176;SDS011;58877;51.992;4.504;2024-03-17T04:43:00;7.66;;;7.66;;
71176;SDS011;58877;51.992;4.504;2024-03-17T04:45:26;8.01;;;7.97;;
71176;SDS011;58877;51.992;4.504;2024-03-17T04:47:52;7.77;;;7.75;;
71176;SDS011;58877;51.992;4.504;2024-03-17T04:50:18;8.16;;;8.11;;
71176;SDS011;58877;51.992;4.504;2024-03-17T04:52:44;7.44;;;7.44;;
71176;SDS011;58877;51.992;4.504;2024-03-17T04:55:09;7.46;;;7.46;;
71176;SDS011;58877;51.992;4.504;2024-03-17T04:57:36;7.68;;;7.68;;
71176;SDS011;58877;51.992;4.504;2024-03-17T05:00:02;7.63;;;7.58;;
71176;SDS011;58877;51.992;4.504;2024-03-17T05:02:32;7.64;;;7.64;;
71176;SDS011;58877;51.992;4.504;2024-03-17T05:04:58;7.94;;;7.94;;
71176;SDS011;58877;51.992;4.504;2024-03-17T05:07:24;7.69;;;7.69;;
71176;SDS011;58877;51.992;4.504;2024-03-17T05:09:49;7.70;;;7.69;;
71176;SDS011;58877;51.992;4.504;2024-03-17T05:12:15;7.78;;;7.74;;
71176;SDS011;58877;51.992;4.504;2024-03-17T05:14:41;7.82;;;7.80;;
71176;SDS011;58877;51.992;4.504;2024-03-17T05:17:07;7.23;;;7.21;;
71176;SDS011;58877;51.992;4.504;2024-03-17T05:19:32;7.60;;;7.55;;
71176;SDS011;58877;51.992;4.504;2024-03-17T05:21:58;7.54;;;7.53;;
71176;SDS011;58877;51.992;4.504;2024-03-17T05:24:23;7.29;;;7.29;;
71176;SDS011;58877;51.992;4.504;2024-03-17T05:26:49;7.71;;;7.71;;
71176;SDS011;58877;51.992;4.504;2024-03-17T05:29:14;8.05;;;7.91;;
71176;SDS011;58877;51.992;4.504;2024-03-17T05:31:40;7.89;;;7.83;;
71176;SDS011;58877;51.992;4.504;2024-03-17T05:34:06;7.21;;;7.20;;
71176;SDS011;58877;51.992;4.504;2024-03-17T05:36:32;7.70;;;7.70;;
71176;SDS011;58877;51.992;4.504;2024-03-17T05:39:01;7.64;;;7.64;;
71176;SDS011;58877;51.992;4.504;2024-03-17T05:41:27;7.47;;;7.47;;
71176;SDS011;58877;51.992;4.504;2024-03-17T05:43:53;7.50;;;7.50;;
71176;SDS011;58877;51.992;4.504;2024-03-17T05:46:23;7.66;;;7.66;;
71176;SDS011;58877;51.992;4.504;2024-03-17T05:48:51;7.62;;;7.62;;
71176;SDS011;58877;51.992;4.504;2024-03-17T05:51:16;7.39;;;7.39;;
71176;SDS011;58877;51.992;4.504;2024-03-17T05:53:42;7.39;;;7.39;;
71176;SDS011;58877;51.992;4.504;2024-03-17T05:56:11;7.45;;;7.42;;
71176;SDS011;58877;51.992;4.504;2024-03-17T05:58:38;8.03;;;8.00;;
71176;SDS011;58877;51.992;4.504;2024-03-17T06:01:04;6.98;;;6.97;;
71176;SDS011;58877;51.992;4.504;2024-03-17T06:03:34;7.42;;;7.33;;
71176;SDS011;58877;51.992;4.504;2024-03-17T06:06:03;7.63;;;7.63;;
71176;SDS011;58877;51.992;4.504;2024-03-17T06:08:32;7.44;;;7.44;;
71176;SDS011;58877;51.992;4.504;2024-03-17T06:10:58;7.38;;;7.37;;
71176;SDS011;58877;51.992;4.504;2024-03-17T06:13:25;7.35;;;7.31;;
71176;SDS011;58877;51.992;4.504;2024-03-17T06:15:51;7.67;;;7.67;;
71176;SDS011;58877;51.992;4.504;2024-03-17T06:18:17;7.34;;;7.34;;
71176;SDS011;58877;51.992;4.504;2024-03-17T06:20:43;7.03;;;7.03;;
71176;SDS011;58877;51.992;4.504;2024-03-17T06:23:10;7.79;;;7.79;;
71176;SDS011;58877;51.992;4.504;2024-03-17T06:25:47;7.63;;;7.63;;
71176;SDS011;58877;51.992;4.504;2024-03-17T06:28:14;7.39;;;7.39;;
71176;SDS011;58877;51.992;4.504;2024-03-17T06:30:42;7.84;;;7.81;;
71176;SDS011;58877;51.992;4.504;2024-03-17T06:33:13;7.42;;;7.41;;
71176;SDS011;58877;51.992;4.504;2024-03-17T06:35:44;7.40;;;7.40;;
71176;SDS011;58877;51.992;4.504;2024-03-17T06:38:11;7.58;;;7.58;;
71176;SDS011;58877;51.992;4.504;2024-03-17T06:40:37;7.02;;;6.98;;
71176;SDS011;58877;51.992;4.504;2024-03-17T06:43:03;7.78;;;7.76;;
71176;SDS011;58877;51.992;4.504;2024-03-17T06:45:30;7.73;;;7.66;;
71176;SDS011;58877;51.992;4.504;2024-03-17T06:47:56;7.12;;;7.10;;
71176;SDS011;58877;51.992;4.504;2024-03-17T06:50:22;7.32;;;7.31;;
71176;SDS011;58877;51.992;4.504;2024-03-17T06:52:47;7.71;;;7.71;;
71176;SDS011;58877;51.992;4.504;2024-03-17T06:55:13;7.26;;;7.26;;
71176;SDS011;58877;51.992;4.504;2024-03-17T06:57:42;6.92;;;6.91;;
71176;SDS011;58877;51.992;4.504;2024-03-17T07:00:09;7.49;;;7.47;;
71176;SDS011;58877;51.992;4.504;2024-03-17T07:02:39;7.26;;;7.26;;
71176;SDS011;58877;51.992;4.504;2024-03-17T07:05:06;7.84;;;7.84;;
71176;SDS011;58877;51.992;4.504;2024-03-17T07:07:33;7.58;;;7.55;;
71176;SDS011;58877;51.992;4.504;2024-03-17T07:09:58;7.42;;;7.42;;
71176;SDS011;58877;51.992;4.504;2024-03-17T07:12:23;7.42;;;7.42;;
71176;SDS011;58877;51.992;4.504;2024-03-17T07:14:50;7.36;;;7.35;;
71176;SDS011;58877;51.992;4.504;2024-03-17T07:17:16;7.16;;;7.14;;
71176;SDS011;58877;51.992;4.504;2024-03-17T07:19:41;7.62;;;7.62;;
71176;SDS011;58877;51.992;4.504;2024-03-17T07:22:07;7.21;;;7.21;;
71176;SDS011;58877;51.992;4.504;2024-03-17T07:24:33;7.02;;;6.99;;
71176;SDS011;58877;51.992;4.504;2024-03-17T07:26:58;7.27;;;7.25;;
71176;SDS011;58877;51.992;4.504;2024-03-17T07:29:24;7.45;;;7.43;;
71176;SDS011;58877;51.992;4.504;2024-03-17T07:31:49;7.11;;;7.00;;
71176;SDS011;58877;51.992;4.504;2024-03-17T07:34:15;6.89;;;6.89;;
71176;SDS011;58877;51.992;4.504;2024-03-17T07:36:40;6.91;;;6.91;;
71176;SDS011;58877;51.992;4.504;2024-03-17T07:39:06;7.24;;;7.24;;
71176;SDS011;58877;51.992;4.504;2024-03-17T07:41:35;7.32;;;7.32;;
71176;SDS011;58877;51.992;4.504;2024-03-17T07:44:00;6.97;;;6.96;;
71176;SDS011;58877;51.992;4.504;2024-03-17T07:46:26;7.23;;;7.21;;
71176;SDS011;58877;51.992;4.504;2024-03-17T07:48:51;6.80;;;6.78;;
71176;SDS011;58877;51.992;4.504;2024-03-17T07:51:17;7.32;;;7.24;;
71176;SDS011;58877;51.992;4.504;2024-03-17T07:53:44;7.35;;;7.31;;
71176;SDS011;58877;51.992;4.504;2024-03-17T07:56:14;7.33;;;7.33;;
71176;SDS011;58877;51.992;4.504;2024-03-17T07:58:44;6.63;;;6.63;;
71176;SDS011;58877;51.992;4.504;2024-03-17T08:01:12;7.16;;;7.16;;
71176;SDS011;58877;51.992;4.504;2024-03-17T08:03:41;7.23;;;7.23;;
71176;SDS011;58877;51.992;4.504;2024-03-17T08:06:20;7.06;;;7.06;;
71176;SDS011;58877;51.992;4.504;2024-03-17T08:08:47;7.36;;;7.35;;
71176;SDS011;58877;51.992;4.504;2024-03-17T08:11:12;7.01;;;7.01;;
71176;SDS011;58877;51.992;4.504;2024-03-17T08:13:38;6.93;;;6.93;;
71176;SDS011;58877;51.992;4.504;2024-03-17T08:16:05;6.96;;;6.96;;
71176;SDS011;58877;51.992;4.504;2024-03-17T08:18:33;7.32;;;7.32;;
71176;SDS011;58877;51.992;4.504;2024-03-17T08:21:00;7.00;;;7.00;;
71176;SDS011;58877;51.992;4.504;2024-03-17T08:23:32;7.07;;;7.07;;
71176;SDS011;58877;51.992;4.504;2024-03-17T08:26:04;6.77;;;6.77;;
71176;SDS011;58877;51.992;4.504;2024-03-17T08:28:30;7.36;;;7.36;;
71176;SDS011;58877;51.992;4.504;2024-03-17T08:31:00;6.92;;;6.92;;
71176;SDS011;58877;51.992;4.504;2024-03-17T08:33:27;6.63;;;6.63;;
71176;SDS011;58877;51.992;4.504;2024-03-17T08:36:00;6.88;;;6.88;;
71176;SDS011;58877;51.992;4.504;2024-03-17T08:38:27;6.97;;;6.97;;
71176;SDS011;58877;51.992;4.504;2024-03-17T08:40:54;6.79;;;6.79;;
71176;SDS011;58877;51.992;4.504;2024-03-17T08:43:21;6.83;;;6.83;;
71176;SDS011;58877;51.992;4.504;2024-03-17T08:46:06;7.40;;;7.40;;
71176;SDS011;58877;51.992;4.504;2024-03-17T08:48:34;6.90;;;6.90;;
71176;SDS011;58877;51.992;4.504;2024-03-17T08:51:02;6.89;;;6.89;;
71176;SDS011;58877;51.992;4.504;2024-03-17T08:53:29;6.54;;;6.54;;
71176;SDS011;58877;51.992;4.504;2024-03-17T08:55:56;7.11;;;7.11;;
71176;SDS011;58877;51.992;4.504;2024-03-17T08:58:23;6.81;;;6.80;;
71176;SDS011;58877;51.992;4.504;2024-03-17T09:00:50;7.04;;;7.02;;
71176;SDS011;58877;51.992;4.504;2024-03-17T09:03:16;6.97;;;6.97;;
71176;SDS011;58877;51.992;4.504;2024-03-17T09:05:43;6.72;;;6.72;;
71176;SDS011;58877;51.992;4.504;2024-03-17T09:08:18;6.99;;;6.99;;
71176;SDS011;58877;51.992;4.504;2024-03-17T09:10:48;7.02;;;7.02;;
71176;SDS011;58877;51.992;4.504;2024-03-17T09:13:16;6.78;;;6.78;;
71176;SDS011;58877;51.992;4.504;2024-03-17T09:15:57;6.94;;;6.94;;
71176;SDS011;58877;51.992;4.504;2024-03-17T09:18:28;6.70;;;6.69;;
71176;SDS011;58877;51.992;4.504;2024-03-17T09:23:29;6.91;;;6.91;;
71176;SDS011;58877;51.992;4.504;2024-03-17T09:28:42;6.74;;;6.74;;
71176;SDS011;58877;51.992;4.504;2024-03-17T09:31:09;6.56;;;6.56;;
71176;SDS011;58877;51.992;4.504;2024-03-17T09:33:36;6.63;;;6.63;;
71176;SDS011;58877;51.992;4.504;2024-03-17T09:36:04;6.53;;;6.53;;
71176;SDS011;58877;51.992;4.504;2024-03-17T09:38:32;6.14;;;6.14;;
71176;SDS011;58877;51.992;4.504;2024-03-17T09:40:59;6.55;;;6.55;;
71176;SDS011;58877;51.992;4.504;2024-03-17T09:43:28;6.41;;;6.41;;
71176;SDS011;58877;51.992;4.504;2024-03-17T09:46:04;6.18;;;6.18;;
71176;SDS011;58877;51.992;4.504;2024-03-17T09:48:31;6.26;;;6.25;;
71176;SDS011;58877;51.992;4.504;2024-03-17T09:51:03;6.30;;;6.27;;
71176;SDS011;58877;51.992;4.504;2024-03-17T09:53:29;5.95;;;5.95;;
71176;SDS011;58877;51.992;4.504;2024-03-17T09:55:58;6.10;;;6.10;;
71176;SDS011;58877;51.992;4.504;2024-03-17T09:58:37;6.07;;;6.06;;
71176;SDS011;58877;51.992;4.504;2024-03-17T10:01:03;6.57;;;6.53;;
71176;SDS011;58877;51.992;4.504;2024-03-17T10:03:39;6.26;;;6.26;;
71176;SDS011;58877;51.992;4.504;2024-03-17T10:06:06;5.81;;;5.81;;
71176;SDS011;58877;51.992;4.504;2024-03-17T10:08:33;5.97;;;5.97;;
71176;SDS011;58877;51.992;4.504;2024-03-17T10:10:59;6.24;;;6.24;;
71176;SDS011;58877;51.992;4.504;2024-03-17T10:13:25;5.71;;;5.71;;
71176;SDS011;58877;51.992;4.504;2024-03-17T10:15:51;5.76;;;5.76;;
71176;SDS011;58877;51.992;4.504;2024-03-17T10:18:20;6.09;;;6.09;;
71176;SDS011;58877;51.992;4.504;2024-03-17T10:20:48;5.95;;;5.95;;
71176;SDS011;58877;51.992;4.504;2024-03-17T10:23:21;5.84;;;5.84;;
71176;SDS011;58877;51.992;4.504;2024-03-17T10:25:48;5.94;;;5.92;;
71176;SDS011;58877;51.992;4.504;2024-03-17T10:28:15;5.30;;;5.30;;
71176;SDS011;58877;51.992;4.504;2024-03-17T10:30:59;5.63;;;5.63;;
71176;SDS011;58877;51.992;4.504;2024-03-17T10:33:26;6.10;;;6.10;;
71176;SDS011;58877;51.992;4.504;2024-03-17T10:36:00;5.44;;;5.44;;
71176;SDS011;58877;51.992;4.504;2024-03-17T10:38:26;5.46;;;5.46;;
71176;SDS011;58877;51.992;4.504;2024-03-17T10:40:53;5.38;;;5.35;;
71176;SDS011;58877;51.992;4.504;2024-03-17T10:43:19;5.43;;;5.38;;
71176;SDS011;58877;51.992;4.504;2024-03-17T10:45:51;5.18;;;5.18;;
71176;SDS011;58877;51.992;4.504;2024-03-17T10:48:19;5.20;;;5.19;;
71176;SDS011;58877;51.992;4.504;2024-03-17T10:50:47;4.97;;;4.96;;
71176;SDS011;58877;51.992;4.504;2024-03-17T10:53:15;5.32;;;5.32;;
71176;SDS011;58877;51.992;4.504;2024-03-17T10:55:55;5.23;;;5.23;;
71176;SDS011;58877;51.992;4.504;2024-03-17T10:58:36;5.14;;;5.13;;
71176;SDS011;58877;51.992;4.504;2024-03-17T11:01:13;5.11;;;5.11;;
71176;SDS011;58877;51.992;4.504;2024-03-17T11:03:39;5.06;;;5.06;;
71176;SDS011;58877;51.992;4.504;2024-03-17T11:06:12;4.97;;;4.97;;
71176;SDS011;58877;51.992;4.504;2024-03-17T11:08:40;5.34;;;5.34;;
71176;SDS011;58877;51.992;4.504;2024-03-17T11:11:07;4.86;;;4.85;;
71176;SDS011;58877;51.992;4.504;2024-03-17T11:13:34;5.27;;;5.25;;
71176;SDS011;58877;51.992;4.504;2024-03-17T11:16:01;5.09;;;5.08;;
71176;SDS011;58877;51.992;4.504;2024-03-17T11:18:36;5.26;;;5.24;;
71176;SDS011;58877;51.992;4.504;2024-03-17T11:21:04;4.86;;;4.86;;
71176;SDS011;58877;51.992;4.504;2024-03-17T11:23:55;5.50;;;5.50;;
71176;SDS011;58877;51.992;4.504;2024-03-17T11:26:26;5.45;;;5.45;;
71176;SDS011;58877;51.992;4.504;2024-03-17T11:28:54;5.33;;;5.33;;
71176;SDS011;58877;51.992;4.504;2024-03-17T11:31:35;5.12;;;5.12;;
71176;SDS011;58877;51.992;4.504;2024-03-17T11:37:04;5.34;;;5.34;;
71176;SDS011;58877;51.992;4.504;2024-03-17T11:43:00;5.31;;;5.31;;
71176;SDS011;58877;51.992;4.504;2024-03-17T11:45:27;5.35;;;5.35;;
71176;SDS011;58877;51.992;4.504;2024-03-17T11:47:52;5.11;;;5.11;;
71176;SDS011;58877;51.992;4.504;2024-03-17T11:50:18;5.33;;;5.33;;
71176;SDS011;58877;51.992;4.504;2024-03-17T11:52:44;5.36;;;5.36;;
71176;SDS011;58877;51.992;4.504;2024-03-17T11:55:17;5.42;;;5.41;;
71176;SDS011;58877;51.992;4.504;2024-03-17T11:57:43;5.36;;;5.36;;
71176;SDS011;58877;51.992;4.504;2024-03-17T12:00:18;5.09;;;5.08;;
71176;SDS011;58877;51.992;4.504;2024-03-17T12:02:49;5.15;;;5.13;;
71176;SDS011;58877;51.992;4.504;2024-03-17T12:05:15;5.39;;;5.39;;
71176;SDS011;58877;51.992;4.504;2024-03-17T12:07:42;5.52;;;5.52;;
71176;SDS011;58877;51.992;4.504;2024-03-17T12:10:11;5.36;;;5.36;;
71176;SDS011;58877;51.992;4.504;2024-03-17T12:12:38;5.05;;;5.05;;
71176;SDS011;58877;51.992;4.504;2024-03-17T12:15:15;5.14;;;5.13;;
71176;SDS011;58877;51.992;4.504;2024-03-17T12:17:44;4.97;;;4.97;;
71176;SDS011;58877;51.992;4.504;2024-03-17T12:20:17;4.79;;;4.79;;
71176;SDS011;58877;51.992;4.504;2024-03-17T12:22:44;4.53;;;4.52;;
71176;SDS011;58877;51.992;4.504;2024-03-17T12:25:19;4.67;;;4.67;;
71176;SDS011;58877;51.992;4.504;2024-03-17T12:27:46;4.29;;;4.29;;
71176;SDS011;58877;51.992;4.504;2024-03-17T12:30:13;4.82;;;4.82;;
71176;SDS011;58877;51.992;4.504;2024-03-17T12:32:40;4.62;;;4.62;;
71176;SDS011;58877;51.992;4.504;2024-03-17T12:35:12;4.71;;;4.71;;
71176;SDS011;58877;51.992;4.504;2024-03-17T12:37:40;4.64;;;4.64;;
71176;SDS011;58877;51.992;4.504;2024-03-17T12:40:17;5.14;;;5.14;;
71176;SDS011;58877;51.992;4.504;2024-03-17T12:42:49;4.74;;;4.73;;
71176;SDS011;58877;51.992;4.504;2024-03-17T12:45:18;4.41;;;4.41;;
71176;SDS011;58877;51.992;4.504;2024-03-17T12:47:50;4.29;;;4.28;;
71176;SDS011;58877;51.992;4.504;2024-03-17T12:50:17;4.77;;;4.77;;
71176;SDS011;58877;51.992;4.504;2024-03-17T12:52:56;4.22;;;4.22;;
71176;SDS011;58877;51.992;4.504;2024-03-17T12:55:22;4.05;;;4.05;;
71176;SDS011;58877;51.992;4.504;2024-03-17T12:58:07;4.39;;;4.37;;
71176;SDS011;58877;51.992;4.504;2024-03-17T13:03:26;4.16;;;4.10;;
71176;SDS011;58877;51.992;4.504;2024-03-17T13:05:55;3.84;;;3.80;;
71176;SDS011;58877;51.992;4.504;2024-03-17T13:08:20;4.39;;;4.35;;
71176;SDS011;58877;51.992;4.504;2024-03-17T13:10:46;3.74;;;3.73;;
71176;SDS011;58877;51.992;4.504;2024-03-17T13:13:12;3.75;;;3.72;;
71176;SDS011;58877;51.992;4.504;2024-03-17T13:15:41;3.83;;;3.77;;
71176;SDS011;58877;51.992;4.504;2024-03-17T13:18:08;4.14;;;4.07;;
71176;SDS011;58877;51.992;4.504;2024-03-17T13:20:41;3.73;;;3.70;;
71176;SDS011;58877;51.992;4.504;2024-03-17T13:23:06;4.06;;;4.02;;
71176;SDS011;58877;51.992;4.504;2024-03-17T13:25:33;3.78;;;3.75;;
71176;SDS011;58877;51.992;4.504;2024-03-17T13:28:01;3.56;;;3.55;;
71176;SDS011;58877;51.992;4.504;2024-03-17T13:30:26;3.99;;;3.98;;
71176;SDS011;58877;51.992;4.504;2024-03-17T13:32:54;3.94;;;3.94;;
71176;SDS011;58877;51.992;4.504;2024-03-17T13:35:23;3.74;;;3.74;;
71176;SDS011;58877;51.992;4.504;2024-03-17T13:37:54;3.61;;;3.61;;
71176;SDS011;58877;51.992;4.504;2024-03-17T13:40:24;4.08;;;4.08;;
71176;SDS011;58877;51.992;4.504;2024-03-17T13:42:52;4.16;;;4.14;;
71176;SDS011;58877;51.992;4.504;2024-03-17T13:45:28;3.33;;;3.32;;
71176;SDS011;58877;51.992;4.504;2024-03-17T13:48:00;3.50;;;3.49;;
71176;SDS011;58877;51.992;4.504;2024-03-17T13:50:29;3.72;;;3.71;;
71176;SDS011;58877;51.992;4.504;2024-03-17T13:52:59;3.66;;;3.64;;
71176;SDS011;58877;51.992;4.504;2024-03-17T13:55:25;3.90;;;3.89;;
71176;SDS011;58877;51.992;4.504;2024-03-17T13:57:52;3.90;;;3.89;;
71176;SDS011;58877;51.992;4.504;2024-03-17T14:00:22;3.66;;;3.66;;
71176;SDS011;58877;51.992;4.504;2024-03-17T14:02:49;3.77;;;3.77;;
71176;SDS011;58877;51.992;4.504;2024-03-17T14:05:17;3.73;;;3.71;;
71176;SDS011;58877;51.992;4.504;2024-03-17T14:07:44;3.45;;;3.43;;
71176;SDS011;58877;51.992;4.504;2024-03-17T14:10:12;3.46;;;3.44;;
71176;SDS011;58877;51.992;4.504;2024-03-17T14:12:39;3.30;;;3.29;;
71176;SDS011;58877;51.992;4.504;2024-03-17T14:15:05;3.68;;;3.67;;
71176;SDS011;58877;51.992;4.504;2024-03-17T14:17:32;3.81;;;3.77;;
71176;SDS011;58877;51.992;4.504;2024-03-17T14:19:58;3.48;;;3.45;;
71176;SDS011;58877;51.992;4.504;2024-03-17T14:22:25;3.21;;;3.16;;
71176;SDS011;58877;51.992;4.504;2024-03-17T14:24:51;3.42;;;3.40;;
71176;SDS011;58877;51.992;4.504;2024-03-17T14:27:17;3.19;;;3.18;;
71176;SDS011;58877;51.992;4.504;2024-03-17T14:29:45;3.18;;;3.15;;
71176;SDS011;58877;51.992;4.504;2024-03-17T14:32:11;3.06;;;3.03;;
71176;SDS011;58877;51.992;4.504;2024-03-17T14:34:39;3.04;;;3.01;;
71176;SDS011;58877;51.992;4.504;2024-03-17T14:37:04;2.88;;;2.85;;
71176;SDS011;58877;51.992;4.504;2024-03-17T14:39:30;2.68;;;2.63;;
71176;SDS011;58877;51.992;4.504;2024-03-17T14:41:56;2.79;;;2.73;;
71176;SDS011;58877;51.992;4.504;2024-03-17T14:44:22;3.21;;;3.14;;
71176;SDS011;58877;51.992;4.504;2024-03-17T14:46:48;3.43;;;3.37;;
71176;SDS011;58877;51.992;4.504;2024-03-17T14:49:18;3.58;;;3.57;;
71176;SDS011;58877;51.992;4.504;2024-03-17T14:51:44;3.19;;;3.18;;
71176;SDS011;58877;51.992;4.504;2024-03-17T14:54:09;3.42;;;3.40;;
71176;SDS011;58877;51.992;4.504;2024-03-17T14:56:37;3.52;;;3.48;;
71176;SDS011;58877;51.992;4.504;2024-03-17T14:59:03;3.46;;;3.42;;
71176;SDS011;58877;51.992;4.504;2024-03-17T15:01:30;3.58;;;3.56;;
71176;SDS011;58877;51.992;4.504;2024-03-17T15:03:56;3.30;;;3.29;;
71176;SDS011;58877;51.992;4.504;2024-03-17T15:06:22;3.22;;;3.20;;